Time;durP1;ratioP1;P1;durP2;ratioP2;P2;SDS_P1;SDS_P2;PMS_P1;PMS_P2;Temp;Humidity;BMP_temperature;BMP_pressure;BME280_temperature;BME280_humidity;BME280_pressure;Samples;Min_cycle;Max_cycle;Signal;HPM_P1;HPM_P2
2024/01/01 00:00:32;;;;;;;6.88;3.53;;;;;;;5.69;100.00;97327.94;15278579;19;20471;-62
2024/01/01 00:05:56;;;;;;;5.57;2.78;;;;;;;5.68;100.00;97306.72;15270357;19;20054;-63
2024/01/01 00:11:21;;;;;;;5.22;2.55;;;;;;;5.75;100.00;97297.06;15277804;19;20620;-63
2024/01/01 00:16:48;;;;;;;5.65;2.50;;;;;;;5.75;100.00;97291.72;15274067;19;20022;-63
2024/01/01 00:22:15;;;;;;;5.28;2.60;;;;;;;5.73;100.00;97291.03;15276907;19;20011;-60
2024/01/01 00:27:39;;;;;;;5.60;2.58;;;;;;;5.67;100.00;97289.84;15279965;19;20014;-60
2024/01/01 00:33:07;;;;;;;7.35;3.03;;;;;;;5.62;100.00;97294.00;15274812;19;20021;-61
2024/01/01 00:38:31;;;;;;;4.50;2.50;;;;;;;5.51;100.00;97282.56;15275894;19;20088;-62
2024/01/01 00:43:57;;;;;;;5.53;2.75;;;;;;;5.41;100.00;97289.84;15274801;19;20019;-61
2024/01/01 00:49:24;;;;;;;5.93;2.60;;;;;;;5.36;100.00;97302.81;15265981;19;20772;-61
2024/01/01 00:54:56;;;;;;;5.47;2.80;;;;;;;5.38;100.00;97306.19;15275563;19;20523;-62
2024/01/01 01:00:21;;;;;;;4.85;2.55;;;;;;;5.43;100.00;97319.91;15286160;19;20029;-61
2024/01/01 01:05:49;;;;;;;4.53;2.60;;;;;;;5.44;100.00;97292.22;15286125;19;20848;-61
2024/01/01 01:11:17;;;;;;;4.03;2.10;;;;;;;5.43;100.00;97290.53;15281816;19;20015;-62
2024/01/01 01:16:42;;;;;;;5.03;2.05;;;;;;;5.45;100.00;97282.38;15277587;19;20026;-63
2024/01/01 01:22:09;;;;;;;4.70;2.00;;;;;;;5.50;100.00;97280.06;15017309;19;5002080;-62
2024/01/01 01:27:34;;;;;;;2.70;1.90;;;;;;;5.45;100.00;97277.88;15278182;19;20014;-63
2024/01/01 01:32:58;;;;;;;3.95;1.88;;;;;;;5.40;100.00;97285.50;15276121;19;20032;-64
2024/01/01 01:38:26;;;;;;;4.40;1.73;;;;;;;5.36;100.00;97276.13;15287196;19;20022;-62
2024/01/01 01:43:52;;;;;;;2.55;1.50;;;;;;;5.31;100.00;97307.81;15286232;19;20479;-63
2024/01/01 01:49:17;;;;;;;3.25;1.73;;;;;;;5.25;100.00;97298.59;15287603;19;20010;-63
2024/01/01 01:54:48;;;;;;;3.35;1.58;;;;;;;5.16;100.00;97313.69;15280015;19;20568;-63
2024/01/01 02:00:15;;;;;;;2.38;1.50;;;;;;;5.08;100.00;97318.97;15282558;19;20022;-61
2024/01/01 02:05:40;;;;;;;4.68;1.70;;;;;;;5.05;100.00;97313.94;15283729;19;20007;-64
2024/01/01 02:11:08;;;;;;;3.90;1.63;;;;;;;5.06;100.00;97310.28;15280116;19;20472;-63
2024/01/01 02:16:32;;;;;;;3.35;1.50;;;;;;;5.19;100.00;97305.41;15288840;19;20043;-63
2024/01/01 02:21:59;;;;;;;3.25;1.50;;;;;;;5.40;100.00;97306.88;15279009;19;20033;-64
2024/01/01 02:27:27;;;;;;;6.07;1.60;;;;;;;5.57;100.00;97307.00;15277637;19;20482;-62
2024/01/01 02:32:53;;;;;;;3.10;1.58;;;;;;;5.66;100.00;97306.03;15280498;19;20094;-63
2024/01/01 02:38:24;;;;;;;5.03;1.67;;;;;;;5.74;100.00;97298.06;15277942;19;20056;-63
2024/01/01 02:43:51;;;;;;;3.92;1.75;;;;;;;5.75;100.00;97314.97;15281031;19;20646;-63
2024/01/01 02:49:16;;;;;;;3.63;1.63;;;;;;;5.74;100.00;97316.78;15281405;19;20118;-62
2024/01/01 02:54:40;;;;;;;5.15;2.25;;;;;;;5.70;100.00;97310.09;15282556;19;20037;-63
2024/01/01 03:00:09;;;;;;;3.60;1.80;;;;;;;5.58;100.00;97311.34;15276069;19;20014;-63
2024/01/01 03:05:34;;;;;;;3.83;2.13;;;;;;;5.42;100.00;97315.56;15280259;19;20042;-62
2024/01/01 03:10:59;;;;;;;5.78;2.30;;;;;;;5.25;100.00;97304.75;15275130;19;20021;-63
2024/01/01 03:16:26;;;;;;;3.22;2.08;;;;;;;5.13;100.00;97319.34;15277616;19;20486;-63
2024/01/01 03:21:51;;;;;;;5.25;2.30;;;;;;;5.05;100.00;97313.94;15266855;19;20610;-61
2024/01/01 03:27:15;;;;;;;4.97;2.50;;;;;;;5.00;100.00;97308.25;15277065;19;20050;-62
2024/01/01 03:32:43;;;;;;;5.07;2.58;;;;;;;5.00;100.00;97311.75;15274211;19;20392;-62
2024/01/01 03:38:07;;;;;;;4.82;2.50;;;;;;;5.01;100.00;97312.56;15281843;19;20026;-63
2024/01/01 03:43:32;;;;;;;4.25;2.30;;;;;;;5.01;100.00;97309.91;15279750;19;20375;-63
2024/01/01 03:49:00;;;;;;;4.38;2.40;;;;;;;5.01;100.00;97313.41;15280042;19;20479;-62
2024/01/01 03:54:25;;;;;;;5.80;2.35;;;;;;;5.04;100.00;97309.59;15280477;19;20006;-63
2024/01/01 03:59:49;;;;;;;5.32;2.92;;;;;;;5.05;100.00;97311.28;15278446;19;20014;-64
2024/01/01 04:05:19;;;;;;;4.43;2.97;;;;;;;5.00;100.00;97322.41;15274246;19;20122;-64
2024/01/01 04:10:43;;;;;;;4.65;2.92;;;;;;;4.93;100.00;97308.84;15277390;19;20022;-64
2024/01/01 04:16:10;;;;;;;6.75;3.00;;;;;;;4.87;100.00;97305.94;15278589;19;20380;-64
2024/01/01 04:21:40;;;;;;;5.40;3.17;;;;;;;4.89;100.00;97299.44;15274357;19;20027;-63
2024/01/01 04:27:05;;;;;;;4.63;3.20;;;;;;;4.89;100.00;97323.47;15276564;19;20010;-62
2024/01/01 04:32:29;;;;;;;6.03;3.35;;;;;;;4.93;100.00;97322.19;15274512;19;20787;-60
2024/01/01 04:38:04;;;;;;;5.10;3.40;;;;;;;4.97;100.00;97332.56;15274387;19;20029;-61
2024/01/01 04:43:29;;;;;;;4.95;3.20;;;;;;;4.93;100.00;97316.03;15272692;19;20018;-62
2024/01/01 04:48:53;;;;;;;5.47;3.42;;;;;;;4.85;100.00;97315.94;15274494;19;20021;-63
2024/01/01 04:54:21;;;;;;;6.22;3.53;;;;;;;4.73;100.00;97326.81;15271723;19;20664;-61
2024/01/01 04:59:46;;;;;;;6.05;3.38;;;;;;;4.68;100.00;97317.59;15277094;19;20021;-63
2024/01/01 05:05:11;;;;;;;5.32;3.28;;;;;;;4.61;100.00;97306.69;15275345;19;20025;-61
2024/01/01 05:10:40;;;;;;;4.95;3.25;;;;;;;4.51;100.00;97304.09;15271151;19;20652;-62
2024/01/01 05:16:06;;;;;;;4.72;3.38;;;;;;;4.41;100.00;97308.66;15270051;19;20941;-61
2024/01/01 05:21:30;;;;;;;4.03;3.17;;;;;;;4.35;100.00;97312.75;15273613;19;20021;-62
2024/01/01 05:26:57;;;;;;;5.38;3.65;;;;;;;4.34;100.00;97315.56;15265589;19;20022;-63
2024/01/01 05:32:22;;;;;;;4.90;3.15;;;;;;;4.32;100.00;97335.22;15270189;19;20616;-62
2024/01/01 05:37:47;;;;;;;3.83;2.85;;;;;;;4.35;100.00;97335.91;15263456;19;20025;-65
2024/01/01 05:43:15;;;;;;;5.90;3.10;;;;;;;4.46;100.00;97330.38;15270591;19;20469;-61
2024/01/01 05:48:39;;;;;;;6.65;3.10;;;;;;;4.47;100.00;97319.53;15283515;19;20048;-66
2024/01/01 05:54:04;;;;;;;4.85;3.10;;;;;;;4.45;100.00;97318.03;15281036;19;20014;-63
2024/01/01 05:59:31;;;;;;;4.10;3.10;;;;;;;4.40;100.00;97320.31;15279778;19;20018;-59
2024/01/01 06:04:56;;;;;;;5.72;2.92;;;;;;;4.36;100.00;97327.75;15282725;19;20619;-64
2024/01/01 06:10:21;;;;;;;6.10;3.30;;;;;;;4.36;100.00;97317.09;15281468;19;20023;-64
2024/01/01 06:15:50;;;;;;;4.65;2.78;;;;;;;4.36;100.00;97330.41;15280427;19;20807;-64
2024/01/01 06:21:14;;;;;;;3.05;2.65;;;;;;;4.37;100.00;97340.09;15282072;19;20668;-64
2024/01/01 06:26:39;;;;;;;5.53;3.10;;;;;;;4.46;100.00;97336.56;15286699;19;20018;-64
2024/01/01 06:32:07;;;;;;;4.53;2.90;;;;;;;4.57;100.00;97335.50;15280834;19;20015;-62
2024/01/01 06:37:31;;;;;;;5.38;2.90;;;;;;;4.67;100.00;97338.13;15278116;19;20787;-62
2024/01/01 06:42:55;;;;;;;5.25;3.05;;;;;;;4.72;100.00;97332.31;15271312;19;20032;-62
2024/01/01 06:48:25;;;;;;;5.13;2.90;;;;;;;4.72;100.00;97345.66;15279084;19;20018;-61
2024/01/01 06:53:49;;;;;;;6.03;3.10;;;;;;;4.67;100.00;97348.78;15272095;19;20403;-62
2024/01/01 06:59:14;;;;;;;5.88;2.80;;;;;;;4.59;100.00;97349.53;15282334;19;20467;-63
2024/01/01 07:04:41;;;;;;;5.47;3.25;;;;;;;4.49;100.00;97367.41;15284776;19;20042;-63
2024/01/01 07:10:07;;;;;;;6.78;2.90;;;;;;;4.41;100.00;97381.50;15282762;19;20022;-63
2024/01/01 07:15:31;;;;;;;4.90;2.72;;;;;;;4.32;100.00;97388.53;15275363;19;20025;-65
2024/01/01 07:21:00;;;;;;;8.25;3.10;;;;;;;4.26;100.00;97383.81;15281019;19;20022;-63
2024/01/01 07:26:25;;;;;;;4.90;3.25;;;;;;;4.21;100.00;97387.91;15279943;19;20736;-64
2024/01/01 07:31:50;;;;;;;5.25;2.92;;;;;;;4.19;100.00;97379.22;15280478;19;20029;-63
2024/01/01 07:37:17;;;;;;;5.00;3.00;;;;;;;4.16;100.00;97388.34;15281298;19;20033;-64
2024/01/01 07:42:42;;;;;;;6.07;3.28;;;;;;;4.16;100.00;97399.84;15281332;19;20014;-63
2024/01/01 07:48:09;;;;;;;4.25;3.20;;;;;;;4.22;100.00;97397.59;15277407;19;20011;-64
2024/01/01 07:53:37;;;;;;;5.10;2.95;;;;;;;4.40;100.00;97405.66;15285147;19;20014;-67
2024/01/01 07:59:01;;;;;;;5.72;3.40;;;;;;;4.47;100.00;97402.22;15236161;19;20022;-64
2024/01/01 08:04:26;;;;;;;5.55;2.90;;;;;;;4.61;100.00;97408.91;15277744;19;20802;-64
2024/01/01 08:09:54;;;;;;;4.75;2.80;;;;;;;4.86;100.00;97409.19;15275723;19;20021;-64
2024/01/01 08:15:19;;;;;;;4.25;2.70;;;;;;;5.18;100.00;97417.66;15275991;19;20018;-64
2024/01/01 08:20:44;;;;;;;3.60;2.53;;;;;;;5.47;100.00;97424.63;15269099;19;20015;-62
2024/01/01 08:26:11;;;;;;;5.53;2.58;;;;;;;5.67;100.00;97417.28;15274673;19;20466;-64
2024/01/01 08:31:35;;;;;;;4.10;2.50;;;;;;;5.77;100.00;97410.00;15276043;19;20028;-64
2024/01/01 08:37:04;;;;;;;3.28;2.30;;;;;;;5.82;100.00;97413.03;15020633;19;5001625;-63
2024/01/01 08:42:38;;;;;;;4.38;2.50;;;;;;;5.87;100.00;97417.94;15276281;19;20014;-64
2024/01/01 08:48:09;;;;;;;3.08;2.03;;;;;;;5.94;100.00;97415.47;15269348;19;20042;-63
2024/01/01 08:53:35;;;;;;;5.32;2.50;;;;;;;5.99;100.00;97416.72;15264373;19;20106;-62
2024/01/01 08:59:03;;;;;;;3.80;2.40;;;;;;;6.03;100.00;97421.72;15271998;19;20487;-63
2024/01/01 09:04:27;;;;;;;4.15;2.40;;;;;;;6.07;100.00;97420.44;15272404;19;20011;-63
2024/01/01 09:09:52;;;;;;;3.95;2.00;;;;;;;6.11;100.00;97427.97;15267833;19;20018;-63
2024/01/01 09:15:20;;;;;;;4.63;2.22;;;;;;;6.17;100.00;97421.97;15270507;19;20345;-64
2024/01/01 09:20:45;;;;;;;4.53;1.98;;;;;;;6.25;100.00;97417.69;15278523;19;20379;-64
2024/01/01 09:26:10;;;;;;;7.50;2.10;;;;;;;6.33;100.00;97425.75;15282749;19;20015;-64
2024/01/01 09:31:37;;;;;;;5.13;2.33;;;;;;;6.37;100.00;97424.44;15282305;19;20666;-63
2024/01/01 09:37:02;;;;;;;3.15;1.80;;;;;;;6.42;100.00;97424.78;15233802;19;20021;-64
2024/01/01 09:42:27;;;;;;;4.40;2.08;;;;;;;6.44;100.00;97428.16;15276869;19;20018;-64
2024/01/01 09:47:54;;;;;;;4.45;1.98;;;;;;;6.45;100.00;97420.97;15254849;19;20355;-62
2024/01/01 09:53:20;;;;;;;3.22;1.55;;;;;;;6.43;100.00;97415.78;15257005;19;20015;-63
2024/01/01 09:58:45;;;;;;;4.80;1.70;;;;;;;6.42;100.00;97414.09;15277892;19;20037;-64
2024/01/01 10:04:13;;;;;;;4.93;1.70;;;;;;;6.39;100.00;97408.22;15278989;19;20292;-62
2024/01/01 10:09:49;;;;;;;6.18;1.60;;;;;;;6.39;100.00;97398.38;15279559;19;20021;-64
2024/01/01 10:15:21;;;;;;;3.85;1.65;;;;;;;6.44;100.00;97401.41;15280678;19;20025;-63
2024/01/01 10:20:50;;;;;;;2.78;1.30;;;;;;;6.59;100.00;97408.81;15279197;19;20921;-64
2024/01/01 10:26:16;;;;;;;3.25;1.60;;;;;;;6.69;100.00;97398.00;15282663;19;20020;-62
2024/01/01 10:31:44;;;;;;;3.55;1.60;;;;;;;6.77;100.00;97401.53;15271912;19;20037;-63
2024/01/01 10:37:13;;;;;;;3.97;1.33;;;;;;;6.85;100.00;97403.38;15285618;19;20370;-61
2024/01/01 10:42:38;;;;;;;3.92;1.35;;;;;;;6.99;100.00;97393.06;15281349;19;20025;-63
2024/01/01 10:48:06;;;;;;;3.03;1.40;;;;;;;7.00;100.00;97411.63;15276612;19;20033;-63
2024/01/01 10:53:55;;;;;;;3.95;1.33;;;;;;;6.97;100.00;97397.72;15279150;19;20025;-65
2024/01/01 10:59:27;;;;;;;3.97;1.30;;;;;;;6.98;100.00;97391.38;15285957;19;20058;-63
2024/01/01 11:05:07;;;;;;;2.45;0.98;;;;;;;7.02;100.00;97393.56;15281493;19;20022;-61
2024/01/01 11:10:46;;;;;;;2.77;0.93;;;;;;;7.09;100.00;97393.75;15278052;19;20018;-63
2024/01/01 11:16:11;;;;;;;3.22;1.10;;;;;;;7.07;100.00;97396.59;15280565;19;20021;-64
2024/01/01 11:21:40;;;;;;;2.83;0.90;;;;;;;7.06;100.00;97407.44;15278111;19;20018;-64
2024/01/01 11:27:25;;;;;;;3.88;1.10;;;;;;;7.04;100.00;97406.81;15255799;19;20010;-63
2024/01/01 11:32:50;;;;;;;2.65;0.95;;;;;;;7.06;100.00;97435.09;15275605;19;20364;-62
2024/01/01 11:38:17;;;;;;;3.22;0.93;;;;;;;7.12;100.00;97397.91;15273068;19;20014;-64
2024/01/01 11:43:44;;;;;;;3.47;0.90;;;;;;;7.20;100.00;97406.00;15279620;19;20125;-63
2024/01/01 11:49:09;;;;;;;2.75;1.10;;;;;;;7.22;100.00;97404.00;15278580;19;20018;-64
2024/01/01 11:54:34;;;;;;;4.78;1.05;;;;;;;7.27;100.00;97376.69;15274510;19;20019;-63
2024/01/01 12:00:01;;;;;;;4.38;1.10;;;;;;;7.29;100.00;97388.91;15274678;19;20022;-64
2024/01/01 12:05:28;;;;;;;4.13;0.90;;;;;;;7.31;100.00;97372.66;15273448;19;20029;-64
2024/01/01 12:11:00;;;;;;;3.33;0.98;;;;;;;7.38;100.00;97377.19;15276902;19;20046;-63
2024/01/01 12:16:29;;;;;;;3.35;1.10;;;;;;;7.49;100.00;97361.78;15276053;19;20010;-64
2024/01/01 12:21:55;;;;;;;3.08;1.10;;;;;;;7.56;100.00;97363.63;15274073;19;20017;-65
2024/01/01 12:27:24;;;;;;;5.40;1.30;;;;;;;7.58;100.00;97376.03;15278774;19;20020;-65
2024/01/01 12:32:51;;;;;;;3.60;1.05;;;;;;;7.56;100.00;97365.50;15274934;19;20086;-63
2024/01/01 12:38:16;;;;;;;4.65;1.40;;;;;;;7.52;100.00;97372.19;15272797;19;20018;-63
2024/01/01 12:43:41;;;;;;;4.82;1.15;;;;;;;7.52;100.00;97356.94;15278679;19;20085;-62
2024/01/01 12:49:08;;;;;;;3.30;1.20;;;;;;;7.49;100.00;97372.50;15269616;19;20384;-64
2024/01/01 12:54:33;;;;;;;2.92;1.02;;;;;;;7.42;100.00;97369.66;15269764;19;20734;-62
2024/01/01 12:59:57;;;;;;;5.47;1.20;;;;;;;7.30;100.00;97374.53;15266784;19;20488;-63
2024/01/01 13:05:24;;;;;;;2.92;1.00;;;;;;;7.21;100.00;97383.56;15274110;19;20021;-63
2024/01/01 13:10:50;;;;;;;3.92;1.05;;;;;;;7.18;100.00;97374.00;15268797;19;20015;-64
2024/01/01 13:16:15;;;;;;;2.70;0.90;;;;;;;7.17;100.00;97379.53;15273084;19;20026;-64
2024/01/01 13:21:42;;;;;;;2.22;0.90;;;;;;;7.17;100.00;97380.38;15271936;19;20442;-63
2024/01/01 13:27:08;;;;;;;1.80;0.60;;;;;;;7.16;100.00;97373.34;15272498;19;20038;-65
2024/01/01 13:32:32;;;;;;;3.00;0.70;;;;;;;7.14;100.00;97382.53;15271576;19;20024;-65
2024/01/01 13:37:59;;;;;;;1.75;0.70;;;;;;;7.12;100.00;97392.56;15275481;19;20500;-63
2024/01/01 13:43:25;;;;;;;1.92;0.70;;;;;;;7.08;100.00;97382.19;15269574;19;20014;-64
2024/01/01 13:48:50;;;;;;;2.58;0.60;;;;;;;7.08;100.00;97386.69;15268588;19;20011;-63
2024/01/01 13:54:17;;;;;;;1.63;0.60;;;;;;;7.07;100.00;97375.16;15267236;19;20018;-63
2024/01/01 13:59:43;;;;;;;1.88;0.57;;;;;;;7.04;100.00;97383.53;15274372;19;20021;-62
2024/01/01 14:05:07;;;;;;;2.22;0.60;;;;;;;6.98;100.00;97397.59;15279067;19;20081;-63
2024/01/01 14:10:34;;;;;;;1.13;0.50;;;;;;;6.93;100.00;97397.22;15283573;19;20776;-61
2024/01/01 14:16:01;;;;;;;2.42;0.75;;;;;;;6.88;100.00;97423.66;15283033;19;20014;-63
2024/01/01 14:21:26;;;;;;;2.75;0.70;;;;;;;6.84;100.00;97430.34;15282004;19;20778;-62
2024/01/01 14:26:53;;;;;;;3.13;0.80;;;;;;;6.83;100.00;97432.16;15286722;19;20021;-62
2024/01/01 14:32:18;;;;;;;1.27;0.68;;;;;;;6.82;100.00;97435.00;15282035;19;20028;-63
2024/01/01 14:37:42;;;;;;;1.70;0.50;;;;;;;6.79;100.00;97445.03;15283584;19;20035;-63
2024/01/01 14:43:10;;;;;;;3.00;0.70;;;;;;;6.76;100.00;97456.06;15282751;19;20025;-63
2024/01/01 14:48:35;;;;;;;0.93;0.40;;;;;;;6.65;100.00;97450.97;15283778;19;20019;-63
2024/01/01 14:54:00;;;;;;;1.20;0.40;;;;;;;6.53;100.00;97457.63;15289628;19;20027;-62
2024/01/01 14:59:27;;;;;;;1.45;0.57;;;;;;;6.47;100.00;97461.75;15282793;19;20010;-63
2024/01/01 15:04:54;;;;;;;1.67;0.70;;;;;;;6.42;100.00;97466.78;15281734;19;20021;-63
2024/01/01 15:10:19;;;;;;;1.05;0.55;;;;;;;6.34;100.00;97464.88;15273531;19;20018;-63
2024/01/01 15:15:47;;;;;;;2.40;0.68;;;;;;;6.27;100.00;97464.66;15277204;19;20508;-62
2024/01/01 15:21:13;;;;;;;1.52;0.60;;;;;;;6.21;100.00;97465.31;15273137;19;20014;-63
2024/01/01 15:26:39;;;;;;;1.75;0.60;;;;;;;6.15;100.00;97477.47;15283850;19;20003;-62
2024/01/01 15:32:07;;;;;;;1.45;0.70;;;;;;;6.12;100.00;97484.94;15279969;19;20446;-63
2024/01/01 15:37:33;;;;;;;1.73;0.70;;;;;;;6.09;100.00;97490.63;15283175;19;20474;-61
2024/01/01 15:43:08;;;;;;;2.58;0.77;;;;;;;6.09;100.00;97504.00;15276773;19;20073;-63
2024/01/01 15:48:36;;;;;;;2.58;0.73;;;;;;;6.07;100.00;97497.97;15281673;19;20023;-64
2024/01/01 15:54:00;;;;;;;2.10;0.82;;;;;;;6.08;100.00;97511.16;15278306;19;20021;-65
2024/01/01 15:59:25;;;;;;;3.05;0.90;;;;;;;6.08;100.00;97529.88;15285536;19;20102;-63
2024/01/01 16:04:52;;;;;;;2.65;0.85;;;;;;;6.08;100.00;97542.44;15282643;19;20016;-63
2024/01/01 16:10:18;;;;;;;3.17;1.00;;;;;;;6.01;100.00;97543.03;15279483;19;20014;-64
2024/01/01 16:15:47;;;;;;;4.22;0.95;;;;;;;5.90;100.00;97558.44;15277389;19;20035;-64
2024/01/01 16:21:15;;;;;;;2.58;1.00;;;;;;;5.69;100.00;97567.63;15271319;19;20019;-63
2024/01/01 16:26:39;;;;;;;3.05;1.00;;;;;;;5.57;100.00;97569.66;15279696;19;20010;-64
2024/01/01 16:32:04;;;;;;;4.55;1.30;;;;;;;5.52;100.00;97588.81;15275679;19;20021;-63
2024/01/01 16:37:31;;;;;;;2.28;0.75;;;;;;;5.47;100.00;97596.41;15279251;19;20038;-65
2024/01/01 16:43:03;;;;;;;2.95;0.98;;;;;;;5.40;100.00;97608.69;15277467;19;20014;-65
2024/01/01 16:48:28;;;;;;;3.20;0.75;;;;;;;5.35;100.00;97613.66;15276593;19;20014;-64
2024/01/01 16:53:56;;;;;;;3.20;0.80;;;;;;;5.31;100.00;97622.94;15273241;19;20787;-64
2024/01/01 16:59:21;;;;;;;4.45;1.10;;;;;;;5.27;100.00;97634.91;15275997;19;20360;-64
2024/01/01 17:04:45;;;;;;;2.83;1.10;;;;;;;5.23;100.00;97640.53;15277139;19;20018;-65
2024/01/01 17:10:13;;;;;;;4.32;1.10;;;;;;;5.28;100.00;97649.94;15276533;19;20019;-64
2024/01/01 17:15:39;;;;;;;4.32;1.00;;;;;;;5.25;100.00;97649.25;15278472;19;20006;-64
2024/01/01 17:21:04;;;;;;;3.58;1.13;;;;;;;5.26;100.00;97663.44;15275635;19;20028;-64
2024/01/01 17:26:31;;;;;;;3.00;1.00;;;;;;;5.28;100.00;97679.31;15271189;19;20026;-62
2024/01/01 17:31:56;;;;;;;2.58;0.85;;;;;;;5.22;100.00;97678.06;15269824;19;20106;-64
2024/01/01 17:37:20;;;;;;;2.47;0.80;;;;;;;5.20;100.00;97691.56;15277833;19;20018;-64
2024/01/01 17:42:55;;;;;;;2.40;0.82;;;;;;;5.17;100.00;97678.50;15281127;19;20021;-64
2024/01/01 17:48:20;;;;;;;2.83;0.95;;;;;;;5.16;100.00;97686.69;15290330;19;20018;-64
2024/01/01 17:53:44;;;;;;;4.10;0.98;;;;;;;5.15;100.00;97688.50;15289218;19;20121;-65
2024/01/01 17:59:11;;;;;;;2.70;0.88;;;;;;;5.13;100.00;97684.28;15284657;19;20029;-65
2024/01/01 18:04:36;;;;;;;3.63;1.10;;;;;;;5.06;100.00;97686.69;15290067;19;20026;-65
2024/01/01 18:10:03;;;;;;;5.57;1.20;;;;;;;4.97;100.00;97683.06;15289677;19;20031;-63
2024/01/01 18:15:30;;;;;;;4.03;1.20;;;;;;;4.88;100.00;97690.09;15290011;19;20019;-63
2024/01/01 18:20:55;;;;;;;3.88;1.10;;;;;;;4.83;100.00;97687.03;15285041;19;20074;-65
2024/01/01 18:26:20;;;;;;;4.53;1.35;;;;;;;4.85;100.00;97697.53;15287752;19;20110;-63
2024/01/01 18:31:49;;;;;;;6.88;1.88;;;;;;;4.75;100.00;97697.56;15277827;19;20038;-66
2024/01/01 18:37:14;;;;;;;5.82;1.52;;;;;;;4.75;100.00;97702.91;15286109;19;20014;-65
2024/01/01 18:42:45;;;;;;;6.68;1.40;;;;;;;4.67;100.00;97710.75;15278708;19;20015;-63
2024/01/01 18:48:12;;;;;;;5.32;1.30;;;;;;;4.51;100.00;97716.66;15283377;19;20097;-62
2024/01/01 18:53:39;;;;;;;5.88;1.48;;;;;;;4.38;100.00;97714.28;15282538;19;20019;-63
2024/01/01 18:59:04;;;;;;;4.85;1.30;;;;;;;4.26;100.00;97718.91;15297452;19;20022;-63
2024/01/01 19:04:32;;;;;;;4.82;1.40;;;;;;;4.16;100.00;97724.25;15294124;19;20018;-64
2024/01/01 19:09:57;;;;;;;4.90;1.60;;;;;;;4.16;100.00;97725.06;15280461;19;20019;-65
2024/01/01 19:15:21;;;;;;;5.03;1.50;;;;;;;4.13;100.00;97725.34;15283169;19;20028;-63
2024/01/01 19:20:55;;;;;;;7.32;1.90;;;;;;;4.06;100.00;97728.72;15278708;19;20018;-61
2024/01/01 19:26:20;;;;;;;4.57;1.63;;;;;;;4.01;100.00;97726.44;15283808;19;20007;-61
2024/01/01 19:31:48;;;;;;;3.53;1.40;;;;;;;3.96;100.00;97724.19;15275174;19;20014;-63
2024/01/01 19:37:16;;;;;;;8.98;2.00;;;;;;;3.92;100.00;97727.25;15272861;19;20010;-64
2024/01/01 19:42:40;;;;;;;6.88;1.52;;;;;;;3.90;100.00;97730.06;15279511;19;20034;-59
2024/01/01 19:48:06;;;;;;;6.55;1.90;;;;;;;3.88;100.00;97744.50;15281586;19;20474;-62
2024/01/01 19:53:33;;;;;;;5.22;1.42;;;;;;;3.98;100.00;97734.72;15269251;19;20014;-64
2024/01/01 19:58:58;;;;;;;7.38;1.73;;;;;;;4.06;100.00;97720.72;15277091;19;20029;-62
2024/01/01 20:04:22;;;;;;;6.40;1.95;;;;;;;4.11;100.00;97726.47;15279074;19;20022;-59
2024/01/01 20:09:50;;;;;;;9.93;2.28;;;;;;;4.18;100.00;97724.09;15267263;19;20049;-62
2024/01/01 20:15:16;;;;;;;9.20;1.98;;;;;;;4.18;100.00;97727.59;15276812;19;20021;-62
2024/01/01 20:20:41;;;;;;;8.93;1.73;;;;;;;4.18;100.00;97732.91;15276631;19;20018;-56
2024/01/01 20:26:09;;;;;;;10.23;2.10;;;;;;;4.16;100.00;97727.72;15280437;19;20467;-57
2024/01/01 20:31:34;;;;;;;7.78;1.73;;;;;;;4.20;100.00;97730.13;15268327;19;20014;-56
2024/01/01 20:36:59;;;;;;;7.88;1.67;;;;;;;4.27;100.00;97740.09;15270189;19;20011;-56
2024/01/01 20:42:34;;;;;;;6.97;1.77;;;;;;;4.26;100.00;97727.75;15264807;19;20699;-52
2024/01/01 20:48:00;;;;;;;7.30;1.63;;;;;;;4.18;100.00;97729.41;15279230;19;20021;-57
2024/01/01 20:53:24;;;;;;;7.07;1.55;;;;;;;4.18;100.00;97745.41;15275475;19;20030;-54
2024/01/01 20:58:51;;;;;;;6.75;1.80;;;;;;;4.30;100.00;97739.81;15276481;19;20045;-55
2024/01/01 21:04:17;;;;;;;4.88;1.40;;;;;;;4.38;100.00;97732.97;15278277;19;20017;-56
2024/01/01 21:09:43;;;;;;;5.03;1.30;;;;;;;4.55;100.00;97721.56;15275227;19;20029;-56
2024/01/01 21:15:10;;;;;;;3.08;1.05;;;;;;;4.56;100.00;97704.59;15280098;19;21362;-52
2024/01/01 21:20:35;;;;;;;5.13;1.25;;;;;;;4.42;100.00;97713.00;15289806;19;20022;-53
2024/01/01 21:26:00;;;;;;;5.70;1.60;;;;;;;4.26;100.00;97713.56;15289746;19;20022;-52
2024/01/01 21:31:30;;;;;;;4.63;1.20;;;;;;;4.10;100.00;97708.78;15287665;19;20025;-55
2024/01/01 21:36:54;;;;;;;3.10;1.08;;;;;;;3.95;100.00;97711.81;15290995;19;20013;-51
2024/01/01 21:42:19;;;;;;;3.75;1.13;;;;;;;3.73;100.00;97726.22;15284525;19;20026;-56
2024/01/01 21:47:46;;;;;;;2.75;1.00;;;;;;;3.57;100.00;97729.41;15285521;19;20030;-55
2024/01/01 21:53:12;;;;;;;3.90;1.30;;;;;;;3.43;100.00;97730.59;15284801;19;20015;-55
2024/01/01 21:58:36;;;;;;;5.03;1.30;;;;;;;3.36;100.00;97724.94;15286777;19;20041;-57
2024/01/01 22:04:04;;;;;;;4.72;1.33;;;;;;;3.33;100.00;97724.38;15290097;19;20025;-52
2024/01/01 22:09:29;;;;;;;4.38;1.13;;;;;;;3.31;100.00;97724.50;15286895;19;20018;-55
2024/01/01 22:14:54;;;;;;;3.35;1.20;;;;;;;3.39;100.00;97726.53;15284013;19;20026;-52
2024/01/01 22:20:21;;;;;;;6.30;1.60;;;;;;;3.45;100.00;97736.63;15286088;19;20090;-54
2024/01/01 22:25:46;;;;;;;6.82;1.55;;;;;;;3.53;100.00;97728.81;15288430;19;20021;-52
2024/01/01 22:31:10;;;;;;;6.00;1.58;;;;;;;3.61;100.00;97736.13;15285180;19;20007;-55
2024/01/01 22:36:37;;;;;;;7.07;1.70;;;;;;;3.70;100.00;97735.31;15288492;19;20018;-54
2024/01/01 22:42:09;;;;;;;6.38;1.50;;;;;;;3.85;100.00;97748.28;15284132;19;20018;-56
2024/01/01 22:47:34;;;;;;;6.18;1.38;;;;;;;3.98;100.00;97753.38;15284697;19;20017;-55
2024/01/01 22:53:01;;;;;;;6.57;1.50;;;;;;;4.06;100.00;97740.19;15279343;19;20036;-55
2024/01/01 22:58:27;;;;;;;6.88;1.52;;;;;;;4.06;100.00;97744.69;15286693;19;20026;-56
2024/01/01 23:04:00;;;;;;;6.90;1.60;;;;;;;4.06;100.00;97734.03;15285888;19;20017;-54
2024/01/01 23:09:28;;;;;;;6.70;1.50;;;;;;;4.03;100.00;97734.31;15284245;19;20018;-55
2024/01/01 23:14:52;;;;;;;4.70;1.48;;;;;;;4.01;100.00;97729.09;15281230;19;20026;-57
2024/01/01 23:20:17;;;;;;;8.48;1.60;;;;;;;4.04;100.00;97736.00;15278642;19;20026;-55
2024/01/01 23:25:45;;;;;;;8.02;1.60;;;;;;;4.04;100.00;97744.81;15284982;19;20002;-53
2024/01/01 23:31:10;;;;;;;7.70;1.58;;;;;;;4.10;100.00;97743.44;15281380;19;20022;-56
2024/01/01 23:36:36;;;;;;;7.18;1.75;;;;;;;4.15;100.00;97749.22;15281054;19;20015;-54
2024/01/01 23:42:10;;;;;;;5.68;1.50;;;;;;;4.16;100.00;97751.72;15278942;19;20019;-55
2024/01/01 23:47:35;;;;;;;7.72;1.55;;;;;;;4.20;100.00;97746.13;15281760;19;20025;-55
2024/01/01 23:52:59;;;;;;;9.18;1.50;;;;;;;4.26;100.00;97745.56;15273006;19;20101;-54
2024/01/01 23:58:28;;;;;;;7.72;1.67;;;;;;;4.29;100.00;97734.63;15278502;19;20014;-55
